Time;durP1;ratioP1;P1;durP2;ratioP2;P2;SDS_P1;SDS_P2;PMS_P1;PMS_P2;Temp;Humidity;BMP_temperature;BMP_pressure;BME280_temperature;BME280_humidity;BME280_pressure;Samples;Min_cycle;Max_cycle;Signal;HPM_P1;HPM_P2
2021/07/14 00:00:27;;;;;;;14.68;7.43;;;;;;;22.78;46.25;93840.22;5090310;28;20494;-71
2021/07/14 00:02:54;;;;;;;12.15;6.07;;;;;;;22.79;46.25;93836.34;5090223;28;20019;-72
2021/07/14 00:05:21;;;;;;;9.65;6.47;;;;;;;22.76;46.69;93850.72;5090239;28;20016;-71
2021/07/14 00:07:48;;;;;;;10.93;6.20;;;;;;;22.74;46.70;93836.75;5090069;28;20036;-71
2021/07/14 00:10:21;;;;;;;10.43;7.18;;;;;;;22.69;46.16;93846.06;5072042;28;20012;-71
2021/07/14 00:23:12;;;;;;;14.10;6.90;;;;;;;22.60;45.96;93832.88;5089980;28;20407;-71
2021/07/14 00:25:38;;;;;;;8.77;6.95;;;;;;;22.63;46.38;93842.97;5090224;28;20024;-71
2021/07/14 00:28:03;;;;;;;8.52;6.70;;;;;;;22.64;46.20;93838.31;5089891;28;20082;-71
2021/07/14 00:30:30;;;;;;;13.80;6.82;;;;;;;22.59;45.80;93834.06;5088907;28;20534;-71
2021/07/14 00:32:56;;;;;;;12.38;7.60;;;;;;;22.61;46.31;93841.78;5090016;28;20525;-82
2021/07/14 00:35:22;;;;;;;14.05;7.10;;;;;;;22.59;46.34;93846.84;5088255;28;20031;-80
2021/07/14 00:37:47;;;;;;;13.00;6.95;;;;;;;22.59;45.21;93831.34;5093950;28;20399;-81
2021/07/14 00:40:14;;;;;;;11.85;7.15;;;;;;;22.51;45.43;93840.66;5093851;28;20039;-81
2021/07/14 00:42:40;;;;;;;10.63;6.97;;;;;;;22.51;45.56;93840.66;5094013;28;20057;-80
2021/07/14 00:45:06;;;;;;;17.33;6.93;;;;;;;22.47;46.25;93841.81;5075458;28;20123;-80
2021/07/14 00:47:34;;;;;;;12.63;6.78;;;;;;;22.34;45.38;93842.19;5093976;28;20027;-80
2021/07/14 00:50:00;;;;;;;13.05;7.32;;;;;;;22.32;45.69;93843.75;5094106;28;20028;-80
2021/07/14 00:52:26;;;;;;;13.38;7.32;;;;;;;22.27;46.48;93841.41;5075164;28;20048;-72
2021/07/14 00:54:52;;;;;;;10.77;7.63;;;;;;;22.24;47.41;93840.25;5093765;28;20474;-72
2021/07/14 00:57:19;;;;;;;14.32;6.50;;;;;;;22.22;46.13;93837.91;5092324;28;20024;-72
2021/07/14 00:59:45;;;;;;;17.20;6.78;;;;;;;22.24;47.38;93838.31;5093702;28;20123;-72
2021/07/14 01:02:12;;;;;;;13.15;7.43;;;;;;;22.20;47.66;93842.94;5075002;28;20119;-72
2021/07/14 01:05:03;;;;;;;9.98;7.18;;;;;;;22.13;47.82;93842.94;5093589;28;20410;-71
2021/07/14 01:07:41;;;;;;;8.55;6.90;;;;;;;22.09;48.04;93841.41;5083697;28;20051;-71
2021/07/14 01:10:16;;;;;;;9.93;6.78;;;;;;;22.05;48.54;93844.09;5074822;28;20111;-71
2021/07/14 01:13:02;;;;;;;8.98;6.97;;;;;;;22.06;48.35;93842.94;5093370;28;20551;-71
2021/07/14 01:15:36;;;;;;;12.15;7.07;;;;;;;22.02;47.34;93842.16;5073230;28;20060;-71
2021/07/14 01:18:11;;;;;;;12.48;8.05;;;;;;;21.99;47.40;93848.38;5093232;28;20429;-71
2021/07/14 01:20:55;;;;;;;11.07;6.82;;;;;;;22.02;46.81;93850.28;5075043;28;20028;-71
2021/07/14 01:23:44;;;;;;;13.13;7.50;;;;;;;22.02;47.03;93853.00;5092947;28;20094;-71
2021/07/14 01:26:18;;;;;;;10.27;7.35;;;;;;;21.98;46.94;93857.66;5093150;28;20042;-71
2021/07/14 01:28:47;;;;;;;11.27;6.63;;;;;;;21.98;47.34;93853.03;5093007;28;20060;-71
2021/07/14 01:31:17;;;;;;;9.95;6.85;;;;;;;21.97;47.20;93850.69;5092881;28;20035;-71
2021/07/14 01:33:46;;;;;;;11.50;7.00;;;;;;;21.94;47.38;93857.66;5092742;28;20050;-71
2021/07/14 01:36:15;;;;;;;12.20;7.90;;;;;;;21.94;47.09;93857.66;5074668;28;20137;-75
2021/07/14 01:38:44;;;;;;;10.45;7.63;;;;;;;21.94;47.61;93857.66;5092746;28;20024;-84
2021/07/14 01:41:13;;;;;;;14.05;6.95;;;;;;;21.94;47.21;93863.09;5092945;28;20024;-83
2021/07/14 01:43:43;;;;;;;8.10;6.68;;;;;;;21.93;46.97;93855.34;5092619;28;20031;-83
2021/07/14 01:46:11;;;;;;;9.30;6.72;;;;;;;21.92;47.20;93856.47;5074321;28;20031;-83
2021/07/14 01:48:38;;;;;;;10.68;7.95;;;;;;;21.90;48.43;93846.03;5091522;28;20115;-83
2021/07/14 01:51:04;;;;;;;10.27;7.90;;;;;;;21.86;49.15;93853.41;5092584;28;20032;-84
2021/07/14 01:53:31;;;;;;;12.55;7.43;;;;;;;21.80;48.80;93853.00;5092665;28;20024;-84
2021/07/14 01:55:58;;;;;;;12.73;7.53;;;;;;;21.79;47.22;93858.78;5092683;28;20028;-83
2021/07/14 01:58:27;;;;;;;10.20;6.93;;;;;;;21.71;47.18;93849.84;5074137;28;20016;-84
2021/07/14 02:00:54;;;;;;;9.77;7.07;;;;;;;21.72;46.86;93856.06;5092322;28;20070;-83
2021/07/14 02:03:42;;;;;;;11.30;7.18;;;;;;;21.68;48.09;93855.28;5092284;28;20020;-83
2021/07/14 02:06:10;;;;;;;9.63;6.97;;;;;;;21.66;48.46;93855.66;5092377;28;20465;-83
2021/07/14 02:08:38;;;;;;;12.85;7.25;;;;;;;21.72;47.54;93851.41;5092219;28;20024;-84
2021/07/14 02:11:04;;;;;;;11.02;7.45;;;;;;;21.66;47.43;93852.97;5092214;28;20145;-84
2021/07/14 02:13:31;;;;;;;11.80;7.32;;;;;;;21.65;47.81;93862.25;5092080;28;20024;-84
2021/07/14 02:15:59;;;;;;;8.80;6.80;;;;;;;21.58;47.87;93862.22;5092035;28;20028;-83
2021/07/14 02:18:35;;;;;;;10.85;6.72;;;;;;;21.56;48.02;93878.09;5089447;28;20016;-83
2021/07/14 02:21:00;;;;;;;10.38;6.75;;;;;;;21.49;48.15;93869.94;5073263;28;20039;-83
2021/07/14 02:23:25;;;;;;;16.40;7.72;;;;;;;21.46;48.01;93870.72;5090483;28;20499;-83
2021/07/14 02:25:52;;;;;;;8.27;6.35;;;;;;;21.42;48.42;93876.88;5088353;28;20020;-83
2021/07/14 02:28:17;;;;;;;10.10;6.53;;;;;;;21.40;48.74;93878.41;5073727;28;20051;-84
2021/07/14 02:30:44;;;;;;;13.48;8.20;;;;;;;21.38;48.23;93878.78;5091817;28;20056;-83
2021/07/14 02:33:11;;;;;;;8.85;6.82;;;;;;;21.33;48.57;93879.16;5087751;28;20023;-83
2021/07/14 02:35:40;;;;;;;8.45;6.75;;;;;;;21.32;48.79;93874.88;5073014;28;20024;-83
2021/07/14 02:38:22;;;;;;;10.15;7.10;;;;;;;21.34;48.89;93885.34;5089503;28;20043;-83
2021/07/14 02:40:55;;;;;;;9.40;7.18;;;;;;;21.34;48.45;93880.69;5091824;28;20403;-84
2021/07/14 02:43:27;;;;;;;9.65;6.88;;;;;;;21.34;48.74;93882.63;5091618;28;20020;-83
2021/07/14 02:45:53;;;;;;;16.13;8.23;;;;;;;21.32;49.13;93885.72;5091477;28;20035;-83
2021/07/14 02:48:20;;;;;;;9.13;7.35;;;;;;;21.34;49.05;93894.25;5091652;28;20023;-83
2021/07/14 02:50:50;;;;;;;11.82;7.15;;;;;;;21.34;49.60;93896.19;5091199;28;20047;-81
2021/07/14 02:53:22;;;;;;;11.20;7.35;;;;;;;21.31;50.63;93902.34;5091303;28;20086;-81
2021/07/14 02:55:54;;;;;;;13.80;7.15;;;;;;;21.28;50.19;93898.47;5071953;28;20020;-81
2021/07/14 02:58:23;;;;;;;15.90;8.00;;;;;;;21.25;50.25;93907.38;5091429;28;20067;-81
2021/07/14 03:00:50;;;;;;;11.60;7.30;;;;;;;21.24;49.77;93911.25;5071832;28;20032;-81
2021/07/14 03:03:16;;;;;;;13.27;8.13;;;;;;;21.23;50.76;93904.28;5072152;28;20035;-80
2021/07/14 03:05:42;;;;;;;15.90;7.70;;;;;;;21.19;50.68;93922.47;5088516;28;20032;-81
2021/07/14 03:08:14;;;;;;;12.27;7.03;;;;;;;21.16;50.71;93923.19;5090917;28;20028;-79
2021/07/14 03:10:42;;;;;;;19.75;8.15;;;;;;;21.16;49.82;93923.19;5090969;28;20075;-79
2021/07/14 03:13:07;;;;;;;11.90;7.35;;;;;;;21.16;50.15;93923.19;5090944;28;20111;-79
2021/07/14 03:15:37;;;;;;;11.90;7.25;;;;;;;21.13;51.22;93918.56;5069817;28;20527;-80
2021/07/14 03:18:03;;;;;;;13.73;7.38;;;;;;;21.10;51.69;93911.94;5090715;28;20020;-79
2021/07/14 03:20:28;;;;;;;16.42;8.43;;;;;;;21.03;51.99;93912.69;5091013;28;20178;-79
2021/07/14 03:22:55;;;;;;;10.23;7.65;;;;;;;21.00;52.28;93899.91;5090760;28;20098;-80
2021/07/14 03:25:21;;;;;;;12.23;8.10;;;;;;;21.01;52.62;93911.50;5090711;28;20043;-80
2021/07/14 03:27:49;;;;;;;9.82;7.47;;;;;;;21.04;52.26;93910.72;5089268;28;20077;-81
2021/07/14 03:30:15;;;;;;;14.25;8.70;;;;;;;21.02;52.38;93908.44;5090519;28;20410;-80
2021/07/14 03:32:40;;;;;;;13.85;8.23;;;;;;;21.02;52.35;93899.50;5090700;28;20165;-83
2021/07/14 03:35:08;;;;;;;10.55;7.75;;;;;;;21.01;52.58;93900.66;5072377;28;20541;-82
2021/07/14 03:37:35;;;;;;;12.73;7.38;;;;;;;21.02;52.65;93897.59;5069044;28;20475;-82
2021/07/14 03:40:07;;;;;;;13.45;8.60;;;;;;;21.03;52.83;93901.84;5087745;28;20035;-82
2021/07/14 03:42:34;;;;;;;12.18;8.30;;;;;;;21.04;53.03;93905.31;5090736;28;20452;-82
2021/07/14 03:45:00;;;;;;;14.45;8.65;;;;;;;21.06;53.06;93907.66;5090239;28;20084;-82
2021/07/14 03:47:26;;;;;;;9.60;7.35;;;;;;;21.07;53.60;93904.56;5071900;28;20024;-82
2021/07/14 03:49:54;;;;;;;11.15;8.05;;;;;;;21.06;53.51;93913.06;5090461;28;20065;-82
2021/07/14 03:52:21;;;;;;;12.43;8.80;;;;;;;21.10;53.46;93924.72;5089933;28;20506;-81
2021/07/14 03:54:47;;;;;;;23.85;8.40;;;;;;;21.15;53.91;93918.94;5090362;28;20069;-81
2021/07/14 03:57:13;;;;;;;10.85;8.15;;;;;;;21.17;54.04;93930.19;5071881;28;20502;-81
2021/07/14 03:59:39;;;;;;;18.38;7.10;;;;;;;21.23;52.48;93934.09;5072207;28;20051;-82
2021/07/14 04:02:10;;;;;;;14.38;7.53;;;;;;;21.28;51.93;93936.44;5090085;28;20107;-82
2021/07/14 04:04:36;;;;;;;16.92;8.40;;;;;;;21.40;51.65;93927.97;5090092;28;20035;-82
2021/07/14 04:07:13;;;;;;;17.33;9.02;;;;;;;21.44;50.81;93934.22;5089851;28;20024;-82
2021/07/14 04:09:38;;;;;;;11.75;7.82;;;;;;;21.46;50.65;93933.06;5071932;28;20033;-82
2021/07/14 04:12:04;;;;;;;10.15;7.78;;;;;;;21.50;51.04;93931.94;5089402;28;20499;-82
2021/07/14 04:14:30;;;;;;;11.32;7.82;;;;;;;21.62;50.92;93928.88;5089944;28;20019;-82
2021/07/14 04:16:56;;;;;;;12.98;8.88;;;;;;;21.73;51.35;93923.47;5072114;28;20020;-82
2021/07/14 04:19:22;;;;;;;17.20;7.60;;;;;;;;;;5071810;28;20027;-81
2021/07/14 04:21:48;;;;;;;14.85;7.88;;;;;;;21.93;49.81;93928.59;5090143;28;20388;-82
2021/07/14 04:24:14;;;;;;;11.45;8.40;;;;;;;21.95;49.74;93929.00;5089961;28;20077;-82
2021/07/14 04:26:40;;;;;;;12.07;8.45;;;;;;;22.03;50.24;93923.19;5071552;28;20032;-82
2021/07/14 04:29:06;;;;;;;13.52;8.18;;;;;;;22.02;50.50;93929.78;5071650;28;20032;-82
2021/07/14 04:31:33;;;;;;;16.27;7.85;;;;;;;22.08;49.68;93926.69;5071619;28;20060;-80
2021/07/14 04:33:59;;;;;;;13.07;8.68;;;;;;;22.12;50.17;93930.19;5090028;28;20031;-81
2021/07/14 04:36:25;;;;;;;12.65;8.45;;;;;;;22.15;51.02;93926.72;5090062;28;20472;-81
2021/07/14 04:38:51;;;;;;;10.48;7.90;;;;;;;22.17;49.19;93933.31;5089745;28;20407;-81
2021/07/14 04:41:16;;;;;;;11.35;8.38;;;;;;;22.21;49.96;93939.50;5089601;28;20542;-81
2021/07/14 04:43:42;;;;;;;15.52;8.15;;;;;;;22.27;50.78;93945.38;5089792;28;20499;-83
2021/07/14 04:46:07;;;;;;;15.15;8.07;;;;;;;22.32;51.06;93941.50;5089892;28;20395;-83
2021/07/14 04:48:33;;;;;;;15.02;8.65;;;;;;;22.39;49.77;93946.97;5089680;28;20178;-72
2021/07/14 04:50:58;;;;;;;14.15;8.35;;;;;;;22.42;49.78;93957.03;5089833;28;20604;-71
2021/07/14 04:53:24;;;;;;;13.73;8.45;;;;;;;22.43;50.55;93958.59;5089528;28;20028;-71
2021/07/14 04:55:49;;;;;;;13.57;8.75;;;;;;;22.43;50.61;93959.38;5070077;28;20039;-71
2021/07/14 04:58:14;;;;;;;18.00;9.63;;;;;;;22.46;51.25;93963.25;5089705;28;20094;-71
2021/07/14 05:00:40;;;;;;;14.32;8.65;;;;;;;22.45;50.47;93964.41;5088007;28;20024;-71
2021/07/14 05:03:05;;;;;;;15.13;9.60;;;;;;;22.44;50.77;93974.47;5089886;28;20024;-71
2021/07/14 05:05:30;;;;;;;19.98;8.82;;;;;;;22.53;49.38;93976.84;5089597;28;20471;-71
2021/07/14 05:07:56;;;;;;;16.73;9.35;;;;;;;22.58;48.96;93973.72;5089108;28;20101;-71
2021/07/14 05:10:24;;;;;;;19.48;10.65;;;;;;;22.64;48.53;93982.28;5071377;28;20057;-71
2021/07/14 05:12:50;;;;;;;17.27;9.70;;;;;;;22.71;49.79;93981.50;5089399;28;20055;-71
2021/07/14 05:15:16;;;;;;;23.75;10.70;;;;;;;22.74;49.46;93988.88;5068494;28;20024;-71
2021/07/14 05:17:41;;;;;;;15.82;10.05;;;;;;;22.80;49.44;93981.91;5089437;28;20043;-71
2021/07/14 05:20:08;;;;;;;19.92;9.75;;;;;;;22.88;49.15;93978.03;5089506;28;20059;-71
2021/07/14 05:22:33;;;;;;;32.05;9.98;;;;;;;22.95;48.76;93986.16;5070767;28;20037;-71
2021/07/14 05:25:00;;;;;;;16.15;9.85;;;;;;;23.00;49.09;93983.06;5093095;28;20081;-71
2021/07/14 05:27:25;;;;;;;16.60;9.75;;;;;;;23.06;48.98;93971.81;5092977;28;20063;-71
2021/07/14 05:29:51;;;;;;;15.25;9.65;;;;;;;23.13;49.15;93971.81;5074613;28;20133;-71
2021/07/14 05:32:17;;;;;;;22.50;10.07;;;;;;;23.22;48.27;93967.53;5093150;28;20115;-71
2021/07/14 05:34:43;;;;;;;19.40;9.90;;;;;;;23.34;48.28;93971.78;5092955;28;20056;-71
2021/07/14 05:37:09;;;;;;;21.02;9.63;;;;;;;23.47;47.91;93969.44;5093204;28;20028;-71
2021/07/14 05:39:35;;;;;;;19.17;9.50;;;;;;;23.61;47.86;93968.59;5092404;28;20047;-69
2021/07/14 05:42:01;;;;;;;11.88;9.10;;;;;;;23.73;48.35;93967.41;5092935;28;20024;-70
2021/07/14 05:44:27;;;;;;;22.45;9.10;;;;;;;23.80;48.74;93972.84;5092721;28;20028;-70
2021/07/14 05:46:52;;;;;;;17.55;9.63;;;;;;;23.93;48.88;93981.34;5092602;28;20077;-75
2021/07/14 05:49:18;;;;;;;17.17;8.40;;;;;;;24.05;48.74;93980.91;5092278;28;20032;-74
2021/07/14 05:51:44;;;;;;;16.23;9.60;;;;;;;24.19;47.58;93983.56;5092235;28;20044;-75
2021/07/14 05:54:10;;;;;;;18.95;8.70;;;;;;;24.29;48.08;93986.63;5092515;28;20081;-77
2021/07/14 05:56:35;;;;;;;13.52;8.70;;;;;;;24.39;48.44;93977.63;5092411;28;20036;-77
2021/07/14 05:59:01;;;;;;;17.85;9.25;;;;;;;24.53;47.28;93983.00;5074619;28;20475;-77
2021/07/14 06:01:26;;;;;;;12.00;9.07;;;;;;;24.63;46.88;93990.34;5073027;28;20444;-76
2021/07/14 06:03:52;;;;;;;19.52;10.02;;;;;;;24.72;46.50;93984.44;5092404;28;20106;-74
2021/07/14 06:06:17;;;;;;;12.85;8.63;;;;;;;24.75;46.40;93989.09;5092340;28;20369;-77
2021/07/14 06:08:43;;;;;;;16.48;9.32;;;;;;;24.85;46.18;93987.44;5091222;28;20058;-76
2021/07/14 06:11:09;;;;;;;15.95;8.68;;;;;;;24.98;45.76;93983.06;5091805;28;20394;-77
2021/07/14 06:13:35;;;;;;;14.50;9.05;;;;;;;25.10;45.78;93990.00;5091353;28;20036;-76
2021/07/14 06:16:00;;;;;;;12.23;8.98;;;;;;;25.22;45.30;93977.84;5091983;28;20560;-76
2021/07/14 06:18:26;;;;;;;21.63;10.02;;;;;;;25.34;45.12;93984.72;5088347;28;20024;-76
2021/07/14 06:20:51;;;;;;;17.92;9.93;;;;;;;25.43;45.49;93982.31;5091517;28;20028;-77
2021/07/14 06:23:17;;;;;;;13.80;9.05;;;;;;;25.54;45.20;93988.41;5091816;28;20378;-77
2021/07/14 06:25:42;;;;;;;20.63;11.32;;;;;;;25.66;45.31;93989.88;5091579;28;20034;-76
2021/07/14 06:28:12;;;;;;;20.65;9.32;;;;;;;25.71;44.36;93999.59;5072572;28;20036;-75
2021/07/14 06:30:39;;;;;;;16.45;9.85;;;;;;;25.80;44.41;93989.72;5091397;28;20052;-76
2021/07/14 06:33:04;;;;;;;20.73;9.93;;;;;;;25.90;44.11;93985.34;5091285;28;20020;-76
2021/07/14 06:35:31;;;;;;;21.05;10.88;;;;;;;25.99;43.93;93998.50;5091094;28;20408;-77
2021/07/14 06:37:57;;;;;;;19.52;10.95;;;;;;;26.04;43.55;93987.13;5071607;28;20024;-76
2021/07/14 06:40:23;;;;;;;20.33;10.65;;;;;;;26.11;43.72;93997.94;5091560;28;20020;-76
2021/07/14 06:42:49;;;;;;;19.45;9.82;;;;;;;26.20;43.55;93992.78;5091113;28;20020;-76
2021/07/14 06:45:15;;;;;;;20.88;10.48;;;;;;;26.31;43.63;93989.13;5073112;28;20058;-76
2021/07/14 06:47:41;;;;;;;13.38;8.85;;;;;;;26.37;43.23;93992.94;5071178;28;20113;-79
2021/07/14 06:50:12;;;;;;;11.60;9.07;;;;;;;26.43;41.94;93983.88;5091081;28;20023;-80
2021/07/14 06:52:39;;;;;;;20.55;9.55;;;;;;;26.47;42.75;93986.56;5091337;28;20044;-80
2021/07/14 06:55:06;;;;;;;19.38;9.45;;;;;;;26.53;42.47;93989.63;5089699;28;20040;-82
2021/07/14 06:57:32;;;;;;;17.88;8.68;;;;;;;26.60;42.35;93984.84;5070170;28;20017;-82
2021/07/14 06:59:57;;;;;;;23.50;10.55;;;;;;;26.68;41.77;93984.72;5089660;28;20479;-82
2021/07/14 07:02:23;;;;;;;13.57;9.15;;;;;;;26.73;42.11;93990.50;5091152;28;20024;-81
2021/07/14 07:04:50;;;;;;;23.13;9.30;;;;;;;26.85;42.20;93978.22;5091268;28;20478;-83
2021/07/14 07:07:16;;;;;;;18.33;9.88;;;;;;;26.95;42.16;93985.50;5090825;28;20028;-82
2021/07/14 07:09:43;;;;;;;25.35;9.73;;;;;;;27.01;42.36;93975.63;5073080;28;20035;-80
2021/07/14 07:12:08;;;;;;;27.15;9.90;;;;;;;27.08;42.33;93968.50;5090817;28;20067;-81
2021/07/14 07:14:34;;;;;;;28.52;10.10;;;;;;;27.14;42.41;93980.50;5091145;28;20089;-81
2021/07/14 07:16:59;;;;;;;30.08;10.23;;;;;;;27.17;41.87;93976.94;5090800;28;20027;-83
2021/07/14 07:19:24;;;;;;;18.00;8.32;;;;;;;27.22;41.40;93971.00;5090671;28;20471;-85
2021/07/14 07:21:51;;;;;;;22.70;10.07;;;;;;;27.28;41.13;93966.63;5071904;28;20028;-82
2021/07/14 07:24:17;;;;;;;16.55;9.30;;;;;;;27.33;42.28;93963.38;5090731;28;20119;-77
2021/07/14 07:26:45;;;;;;;21.33;10.30;;;;;;;27.45;41.42;93963.97;5091902;28;20036;-80
2021/07/14 07:29:11;;;;;;;20.00;8.70;;;;;;;27.53;41.55;93959.91;5089456;28;20032;-78
2021/07/14 07:31:37;;;;;;;13.98;8.77;;;;;;;27.63;40.97;93952.69;5090942;28;20347;-78
2021/07/14 07:34:03;;;;;;;13.82;8.32;;;;;;;27.71;40.59;93962.31;5090804;28;20028;-80
2021/07/14 07:36:29;;;;;;;26.65;9.75;;;;;;;27.81;40.35;93964.06;5090592;28;20394;-81
2021/07/14 07:38:54;;;;;;;20.88;8.98;;;;;;;27.88;39.52;93957.72;5090816;28;20103;-80
2021/07/14 07:41:21;;;;;;;16.92;8.02;;;;;;;27.95;40.03;93957.59;5090397;28;20038;-80
2021/07/14 07:43:47;;;;;;;16.27;8.40;;;;;;;27.95;39.44;93954.84;5070192;28;20404;-82
2021/07/14 07:46:13;;;;;;;18.17;8.80;;;;;;;27.97;39.25;93953.22;5089785;28;20062;-82
2021/07/14 07:48:39;;;;;;;18.90;8.35;;;;;;;28.06;39.36;93957.34;5090477;28;20077;-83
2021/07/14 07:51:06;;;;;;;19.77;8.18;;;;;;;28.16;39.97;93957.13;5072333;28;20020;-81
2021/07/14 07:53:31;;;;;;;18.48;8.82;;;;;;;28.29;39.65;93961.94;5090395;28;20115;-82
2021/07/14 07:55:57;;;;;;;15.50;8.13;;;;;;;28.38;38.73;93953.94;5090394;28;20102;-83
2021/07/14 07:58:23;;;;;;;11.02;8.10;;;;;;;28.42;38.45;93952.66;5090324;28;20020;-82
2021/07/14 08:00:48;;;;;;;27.92;9.00;;;;;;;28.45;38.25;93950.25;5090339;28;20077;-82
2021/07/14 08:03:14;;;;;;;15.15;8.25;;;;;;;28.44;38.37;93951.47;5090416;28;20047;-83
2021/07/14 08:05:41;;;;;;;11.55;7.88;;;;;;;28.42;37.62;93947.16;5090298;28;20036;-80
2021/07/14 08:08:06;;;;;;;14.93;7.68;;;;;;;28.51;37.99;93945.84;5090536;28;20028;-80
2021/07/14 08:10:32;;;;;;;13.05;7.97;;;;;;;28.61;37.86;93942.84;5071569;28;20089;-80
2021/07/14 08:12:58;;;;;;;12.50;7.45;;;;;;;28.70;37.29;93944.22;5069912;28;20082;-80
2021/07/14 08:15:24;;;;;;;9.93;7.05;;;;;;;28.75;36.54;93943.72;5090073;28;20081;-78
2021/07/14 08:17:49;;;;;;;11.90;7.47;;;;;;;28.70;36.68;93946.97;5090254;28;20061;-79
2021/07/14 08:20:15;;;;;;;12.02;7.22;;;;;;;28.76;36.91;93943.31;5071789;28;20056;-78
2021/07/14 08:22:41;;;;;;;11.57;7.35;;;;;;;28.88;36.13;93936.38;5088942;28;20554;-78
2021/07/14 08:25:08;;;;;;;10.90;7.15;;;;;;;28.99;35.71;93931.38;5090322;28;20027;-79
2021/07/14 08:27:35;;;;;;;10.20;7.53;;;;;;;29.13;36.35;93929.50;5090018;28;20020;-79
2021/07/14 08:30:00;;;;;;;16.98;7.13;;;;;;;29.26;33.49;93927.59;5090281;28;20019;-79
2021/07/14 08:32:31;;;;;;;9.48;6.70;;;;;;;29.35;34.16;93938.75;5089964;28;20564;-79
2021/07/14 08:34:57;;;;;;;9.40;6.70;;;;;;;29.46;33.62;93934.94;5070793;28;20055;-77
2021/07/14 08:37:23;;;;;;;10.40;6.63;;;;;;;29.60;34.10;93934.56;5089969;28;20020;-77
2021/07/14 08:39:50;;;;;;;10.88;6.90;;;;;;;29.69;33.74;93928.44;5089773;28;20035;-78
2021/07/14 08:42:17;;;;;;;10.45;7.15;;;;;;;29.74;34.43;93936.19;5071548;28;20020;-78
2021/07/14 08:44:43;;;;;;;12.15;6.90;;;;;;;29.85;34.51;93930.38;5089946;28;20063;-77
2021/07/14 08:47:09;;;;;;;20.60;7.95;;;;;;;29.93;33.44;93939.97;5090098;28;20450;-78
2021/07/14 08:49:39;;;;;;;10.65;7.50;;;;;;;29.97;32.81;93927.66;5089764;28;20085;-76
2021/07/14 08:52:05;;;;;;;17.38;6.80;;;;;;;30.02;32.56;93934.56;5090041;28;20036;-77
2021/07/14 08:54:31;;;;;;;9.63;6.60;;;;;;;30.03;32.99;93930.63;5090193;28;20028;-76
2021/07/14 08:56:56;;;;;;;14.57;7.13;;;;;;;30.13;33.89;93926.81;5091297;28;20020;-77
2021/07/14 08:59:22;;;;;;;15.57;6.80;;;;;;;30.16;33.92;93936.16;5094075;28;20012;-76
2021/07/14 09:01:48;;;;;;;13.63;7.47;;;;;;;30.26;33.45;93937.03;5093856;28;20032;-78
2021/07/14 09:04:14;;;;;;;16.40;7.32;;;;;;;30.32;32.58;93930.59;5093901;28;20031;-77
2021/07/14 09:06:40;;;;;;;21.38;7.63;;;;;;;30.35;32.84;93926.22;5097415;28;20024;-78
2021/07/14 09:09:06;;;;;;;16.55;6.53;;;;;;;30.26;32.28;93926.06;5091740;28;20024;-76
2021/07/14 09:11:52;;;;;;;12.80;7.13;;;;;;;30.30;32.36;93927.50;5075274;28;20138;-76
2021/07/14 09:14:26;;;;;;;10.65;6.80;;;;;;;30.42;32.69;93931.47;5093339;28;20038;-78
2021/07/14 09:16:52;;;;;;;12.98;6.97;;;;;;;30.49;31.22;93930.47;5093533;28;20028;-75
2021/07/14 09:19:23;;;;;;;11.85;7.63;;;;;;;30.50;31.46;93923.78;5093606;28;20036;-75
2021/07/14 09:21:48;;;;;;;12.02;7.28;;;;;;;30.46;32.04;93929.38;5093451;28;20409;-77
2021/07/14 09:24:27;;;;;;;10.55;8.15;;;;;;;30.46;32.87;93929.38;5093120;28;20110;-77
2021/07/14 09:26:54;;;;;;;11.32;8.32;;;;;;;30.54;32.88;93927.97;5093369;28;20506;-75
2021/07/14 09:29:20;;;;;;;13.13;7.05;;;;;;;30.69;33.15;93922.00;5091936;28;20020;-78
2021/07/14 09:31:47;;;;;;;11.60;7.13;;;;;;;30.81;33.53;93915.72;5093166;28;20097;-76
2021/07/14 09:34:32;;;;;;;10.05;6.75;;;;;;;30.83;32.25;93921.56;5073918;28;20407;-76
2021/07/14 09:37:02;;;;;;;9.07;7.10;;;;;;;30.87;32.08;93907.69;5092690;28;20103;-78
2021/07/14 09:39:40;;;;;;;10.75;6.85;;;;;;;30.94;32.12;93918.50;5092851;28;20375;-77
2021/07/14 09:42:11;;;;;;;8.57;7.20;;;;;;;30.97;31.02;93912.88;5092522;28;20028;-77
2021/07/14 09:44:47;;;;;;;15.57;7.03;;;;;;;30.92;32.20;93918.94;5092891;28;20046;-78
2021/07/14 09:47:15;;;;;;;16.50;7.88;;;;;;;31.01;31.77;93915.50;5092457;28;20114;-78
2021/07/14 09:49:41;;;;;;;11.38;6.60;;;;;;;31.16;31.97;93924.03;5091361;28;20044;-78
2021/07/14 09:52:12;;;;;;;13.10;7.53;;;;;;;31.26;32.43;93924.91;5092197;28;20077;-78
2021/07/14 09:54:39;;;;;;;10.38;6.97;;;;;;;31.29;30.54;93924.78;5092795;28;20084;-77
2021/07/14 09:57:09;;;;;;;10.90;6.95;;;;;;;31.33;30.15;93925.44;5092462;28;20479;-77
2021/07/14 09:59:35;;;;;;;11.90;6.57;;;;;;;31.28;30.23;93917.72;5092412;28;20069;-76
2021/07/14 10:02:00;;;;;;;10.18;6.90;;;;;;;31.35;29.96;93914.75;5092371;28;20522;-76
2021/07/14 10:04:34;;;;;;;13.77;6.95;;;;;;;31.52;31.10;93926.38;5073847;28;20028;-76
2021/07/14 10:07:26;;;;;;;12.20;6.72;;;;;;;31.61;30.04;93911.94;5092742;28;20102;-77
2021/07/14 10:09:51;;;;;;;19.77;6.55;;;;;;;31.65;30.05;93909.81;5070102;28;20440;-78
2021/07/14 10:12:49;;;;;;;8.70;6.20;;;;;;;31.75;29.93;93914.19;5092284;28;20039;-79
2021/07/14 10:15:15;;;;;;;8.63;6.28;;;;;;;31.80;29.84;93910.06;5062552;28;20070;-77
2021/07/14 10:17:40;;;;;;;12.00;7.50;;;;;;;31.77;30.96;93906.22;5092004;28;20016;-77
2021/07/14 10:20:21;;;;;;;8.77;6.43;;;;;;;31.86;30.38;93900.00;5090512;28;20038;-77
2021/07/14 10:22:50;;;;;;;11.15;6.05;;;;;;;31.95;29.99;93910.31;5073802;28;20032;-79
2021/07/14 10:25:17;;;;;;;13.45;7.28;;;;;;;32.05;30.06;93911.16;5091602;28;20027;-77
2021/07/14 10:27:48;;;;;;;7.88;7.07;;;;;;;32.10;29.89;93905.84;5091627;28;20445;-77
2021/07/14 10:30:18;;;;;;;11.68;6.85;;;;;;;32.18;28.52;93896.09;5092037;28;20084;-78
2021/07/14 10:32:44;;;;;;;12.02;6.18;;;;;;;32.23;28.53;93896.72;5091607;28;20024;-77
2021/07/14 10:35:22;;;;;;;10.70;6.47;;;;;;;32.28;28.26;93907.16;5091559;28;20052;-76
2021/07/14 10:38:01;;;;;;;10.40;6.32;;;;;;;32.26;28.38;93895.78;5091393;28;20031;-77
2021/07/14 10:40:27;;;;;;;6.70;5.40;;;;;;;32.40;28.12;93889.72;5091309;28;20032;-76
2021/07/14 10:42:54;;;;;;;11.57;6.18;;;;;;;32.30;26.26;93890.91;5091571;28;20106;-77
2021/07/14 10:45:20;;;;;;;16.50;6.72;;;;;;;32.19;27.49;93888.56;5091735;28;20027;-77
2021/07/14 10:47:48;;;;;;;9.85;5.80;;;;;;;32.23;27.27;93885.69;5091078;28;20115;-77
2021/07/14 10:50:19;;;;;;;11.52;5.43;;;;;;;32.32;26.79;93888.47;5091424;28;20032;-76
2021/07/14 10:52:45;;;;;;;11.32;6.72;;;;;;;32.39;26.74;93879.94;5091058;28;20051;-76
2021/07/14 10:55:21;;;;;;;7.47;5.72;;;;;;;32.40;26.29;93881.47;5091473;28;20020;-77
2021/07/14 10:57:47;;;;;;;13.75;5.90;;;;;;;32.44;25.35;93878.56;5091342;28;20042;-75
2021/07/14 11:00:13;;;;;;;6.70;5.47;;;;;;;32.37;26.31;93874.09;5073550;28;20023;-75
2021/07/14 11:02:44;;;;;;;7.53;5.70;;;;;;;32.41;25.93;93880.25;5090833;28;20027;-76
2021/07/14 11:05:11;;;;;;;7.25;5.65;;;;;;;32.46;26.59;93882.41;5091373;28;20036;-76
2021/07/14 11:07:42;;;;;;;8.85;5.10;;;;;;;32.53;26.08;93884.88;5090898;28;20036;-77
2021/07/14 11:10:38;;;;;;;7.88;5.70;;;;;;;32.66;26.23;93876.53;5091237;28;20103;-76
2021/07/14 11:13:28;;;;;;;8.98;5.65;;;;;;;32.71;26.08;93870.41;5074109;28;20035;-76
2021/07/14 11:15:54;;;;;;;7.38;5.75;;;;;;;32.81;26.12;93873.94;5090764;28;20051;-77
2021/07/14 11:18:39;;;;;;;12.15;6.97;;;;;;;32.94;26.74;93866.31;5091200;28;20031;-77
2021/07/14 11:21:05;;;;;;;9.40;6.28;;;;;;;33.07;27.51;93874.44;5091455;28;20820;-77
2021/07/14 11:23:30;;;;;;;8.13;6.25;;;;;;;33.16;26.58;93865.47;5090937;28;20095;-77
2021/07/14 11:25:59;;;;;;;7.57;5.60;;;;;;;33.29;26.35;93868.81;5072490;28;20028;-77
2021/07/14 11:28:26;;;;;;;8.70;5.75;;;;;;;33.37;27.32;93872.06;5091086;28;20153;-79
2021/07/14 11:30:56;;;;;;;9.23;6.85;;;;;;;33.47;26.43;93872.81;5090488;28;20109;-77
2021/07/14 11:33:32;;;;;;;12.48;5.68;;;;;;;33.45;25.25;93862.22;5090896;28;20024;-78
2021/07/14 11:36:03;;;;;;;10.02;6.03;;;;;;;33.22;24.31;93863.63;5090504;28;20056;-80
2021/07/14 11:38:45;;;;;;;7.15;5.50;;;;;;;33.18;23.98;93851.97;5072620;28;20016;-77
2021/07/14 11:41:37;;;;;;;8.48;4.82;;;;;;;33.13;23.71;93847.03;5090559;28;20031;-79